Time;durP1;ratioP1;P1;durP2;ratioP2;P2;SDS_P1;SDS_P2;PMS_P1;PMS_P2;Temp;Humidity;BMP_temperature;BMP_pressure;BME280_temperature;BME280_humidity;BME280_pressure;Samples;Min_cycle;Max_cycle;Signal;HPM_P1;HPM_P2
2022/11/23 00:01:17;;;;;;;27.60;13.15;;;;;;;4.58;90.77;99677.88;5048487;28;20048;-65
2022/11/23 00:03:44;;;;;;;26.73;11.95;;;;;;;4.35;91.19;99681.50;5049715;28;20055;-65
2022/11/23 00:06:11;;;;;;;27.55;12.48;;;;;;;4.39;91.78;99672.69;5039138;28;20052;-65
2022/11/23 00:08:37;;;;;;;28.92;13.50;;;;;;;4.76;89.34;99678.84;5048062;28;20416;-65
2022/11/23 00:11:04;;;;;;;25.10;12.15;;;;;;;5.13;87.89;99680.63;5048825;28;20071;-66
2022/11/23 00:13:31;;;;;;;30.10;12.52;;;;;;;5.04;87.49;99678.41;5038716;28;20052;-65
2022/11/23 00:15:59;;;;;;;23.55;11.95;;;;;;;5.12;87.44;99677.16;5047962;28;20485;-65
2022/11/23 00:18:25;;;;;;;25.08;12.27;;;;;;;5.15;87.54;99665.78;5065531;28;20488;-65
2022/11/23 00:20:51;;;;;;;21.85;11.02;;;;;;;5.10;87.40;99678.97;5038525;28;20089;-65
2022/11/23 00:23:18;;;;;;;23.17;11.13;;;;;;;5.25;86.51;99683.47;5047952;28;20044;-65
2022/11/23 00:25:45;;;;;;;23.02;11.55;;;;;;;5.46;86.16;99686.84;5057096;28;20055;-66
2022/11/23 00:28:12;;;;;;;23.08;11.35;;;;;;;5.06;87.33;99684.41;5038742;27;20068;-65
2022/11/23 00:30:38;;;;;;;21.80;11.10;;;;;;;5.28;87.60;99679.91;5048029;28;20543;-65
2022/11/23 00:33:06;;;;;;;23.00;11.23;;;;;;;5.22;86.46;99677.56;5049041;28;20052;-65
2022/11/23 00:35:32;;;;;;;23.90;11.77;;;;;;;4.83;89.10;99691.50;5039027;28;20052;-65
2022/11/23 00:37:59;;;;;;;22.63;11.70;;;;;;;4.73;90.48;99691.97;5048174;28;20052;-65
2022/11/23 00:40:25;;;;;;;22.85;11.65;;;;;;;4.59;90.93;99692.56;5048239;28;20068;-65
2022/11/23 00:42:52;;;;;;;22.50;10.93;;;;;;;4.20;92.87;99692.53;5039135;28;20097;-65
2022/11/23 00:45:18;;;;;;;25.77;11.60;;;;;;;4.09;93.37;99697.34;5047570;28;20552;-65
2022/11/23 00:47:44;;;;;;;23.60;11.05;;;;;;;4.28;93.73;99697.41;5057149;28;20051;-65
2022/11/23 00:50:12;;;;;;;25.95;11.63;;;;;;;4.64;91.84;99690.63;5053757;28;20044;-65
2022/11/23 00:52:39;;;;;;;21.52;11.35;;;;;;;4.81;90.97;99690.69;5067893;28;20051;-65
2022/11/23 00:55:06;;;;;;;30.45;11.60;;;;;;;5.21;89.63;99697.50;5062504;28;20044;-66
2022/11/23 00:57:33;;;;;;;25.15;11.38;;;;;;;5.13;88.50;99701.41;5043150;28;20044;-66
2022/11/23 01:00:00;;;;;;;25.55;11.77;;;;;;;5.40;87.82;99693.16;5047490;28;20470;-65
2022/11/23 01:02:26;;;;;;;22.70;10.13;;;;;;;5.65;86.16;99698.03;5048396;28;20416;-65
2022/11/23 01:04:52;;;;;;;25.85;11.60;;;;;;;5.13;88.17;99699.66;5038278;28;20040;-66
2022/11/23 01:07:20;;;;;;;21.35;10.90;;;;;;;5.08;89.07;99701.59;5047017;28;20049;-65
2022/11/23 01:09:47;;;;;;;21.27;10.88;;;;;;;4.87;90.59;99700.84;5048332;28;20045;-66
2022/11/23 01:12:13;;;;;;;24.70;10.82;;;;;;;5.46;88.27;99698.97;5038133;28;20647;-66
2022/11/23 01:14:40;;;;;;;20.15;10.95;;;;;;;4.90;90.62;99692.91;5047036;28;20492;-65
2022/11/23 01:17:06;;;;;;;18.48;10.38;;;;;;;5.39;88.67;99688.03;5047884;28;20037;-65
2022/11/23 01:19:32;;;;;;;20.45;9.85;;;;;;;5.37;88.23;99692.44;5046599;28;20789;-66
2022/11/23 01:21:59;;;;;;;26.90;11.50;;;;;;;5.29;87.94;99691.97;5048248;28;20048;-65
2022/11/23 01:24:27;;;;;;;23.73;10.75;;;;;;;5.38;87.47;99696.75;5048436;28;20053;-65
2022/11/23 01:26:54;;;;;;;20.42;9.30;;;;;;;5.03;88.85;99695.75;5045365;28;20408;-65
2022/11/23 01:29:21;;;;;;;20.42;10.27;;;;;;;5.24;89.71;99696.56;5047058;28;20044;-66
2022/11/23 01:31:48;;;;;;;19.83;10.25;;;;;;;5.49;88.45;99698.84;5047740;28;20041;-65
2022/11/23 01:34:16;;;;;;;22.48;9.65;;;;;;;5.71;86.73;99686.50;5038584;28;20059;-65
2022/11/23 01:36:43;;;;;;;22.50;9.85;;;;;;;5.55;87.22;99695.94;5047462;28;20527;-66
2022/11/23 01:39:11;;;;;;;20.90;10.52;;;;;;;5.33;88.10;99688.31;5047640;28;20052;-66
2022/11/23 01:41:41;;;;;;;17.92;8.88;;;;;;;4.97;89.32;99692.59;5038015;28;20044;-66
2022/11/23 01:44:28;;;;;;;19.92;10.50;;;;;;;5.27;89.49;99692.06;5046490;28;20049;-66
2022/11/23 01:46:55;;;;;;;18.73;9.43;;;;;;;5.31;88.26;99700.53;5056770;28;20043;-66
2022/11/23 01:49:23;;;;;;;22.83;9.63;;;;;;;5.28;88.32;99700.69;5050561;28;20041;-66
2022/11/23 01:51:53;;;;;;;19.92;10.20;;;;;;;5.17;89.88;99701.19;5046563;27;20047;-66
2022/11/23 01:54:25;;;;;;;21.15;10.73;;;;;;;4.95;90.34;99704.84;5037225;27;20053;-66
2022/11/23 01:56:55;;;;;;;19.25;9.93;;;;;;;4.96;91.17;99706.50;5051948;28;20516;-66
2022/11/23 01:59:23;;;;;;;22.42;9.70;;;;;;;5.08;89.52;99693.81;5036192;27;21966;-66
2022/11/23 02:01:49;;;;;;;21.30;10.40;;;;;;;5.55;87.28;99701.13;5048427;27;20049;-66
2022/11/23 02:04:23;;;;;;;18.55;9.80;;;;;;;5.21;88.27;99696.69;5042062;27;20056;-66
2022/11/23 02:06:50;;;;;;;16.60;9.57;;;;;;;4.99;89.35;99701.19;5019416;28;20556;-65
2022/11/23 02:09:18;;;;;;;19.60;9.63;;;;;;;4.99;88.81;99711.59;5043479;28;20049;-66
2022/11/23 02:11:44;;;;;;;17.25;8.40;;;;;;;4.54;91.26;99706.66;5050355;28;20049;-65
2022/11/23 02:14:12;;;;;;;20.85;10.35;;;;;;;4.69;91.27;99698.22;5041808;28;20041;-66
2022/11/23 02:16:39;;;;;;;21.98;10.80;;;;;;;4.25;93.08;99702.72;5052468;28;20490;-66
2022/11/23 02:19:13;;;;;;;16.67;8.90;;;;;;;4.72;90.82;99706.72;5062778;28;20048;-66
2022/11/23 02:21:41;;;;;;;18.45;9.18;;;;;;;4.67;91.37;99705.22;5043698;28;20053;-65
2022/11/23 02:24:12;;;;;;;18.88;8.10;;;;;;;4.29;92.24;99704.25;5063324;28;20043;-66
2022/11/23 02:26:40;;;;;;;25.95;10.60;;;;;;;4.14;93.74;99715.31;5068447;27;20469;-65
2022/11/23 02:29:11;;;;;;;19.27;9.30;;;;;;;4.78;90.85;99700.38;5051057;28;20048;-65
2022/11/23 02:31:38;;;;;;;25.35;10.93;;;;;;;4.45;90.79;99705.31;5051192;28;20052;-65
2022/11/23 02:34:04;;;;;;;16.52;8.95;;;;;;;4.46;90.90;99696.63;5041146;28;20044;-66
2022/11/23 02:36:40;;;;;;;17.48;9.65;;;;;;;4.16;92.67;99692.72;5050925;28;20408;-66
2022/11/23 02:39:10;;;;;;;20.85;9.90;;;;;;;4.38;92.22;99688.31;5050466;28;20044;-66
2022/11/23 02:41:40;;;;;;;22.45;10.02;;;;;;;4.34;92.01;99703.16;5041619;28;20052;-66
2022/11/23 02:44:15;;;;;;;21.00;9.77;;;;;;;4.52;90.88;99687.69;5050253;28;20048;-66
2022/11/23 02:46:41;;;;;;;23.88;10.40;;;;;;;3.96;93.01;99705.66;5043640;28;20447;-65
2022/11/23 02:49:08;;;;;;;20.02;10.38;;;;;;;4.02;93.82;99702.84;5062178;28;20492;-66
2022/11/23 02:51:34;;;;;;;27.48;11.40;;;;;;;3.95;92.99;99702.25;5051470;28;21609;-65
2022/11/23 02:54:01;;;;;;;25.00;10.55;;;;;;;3.63;94.83;99713.91;5040644;28;20045;-65
2022/11/23 02:56:27;;;;;;;19.73;9.50;;;;;;;3.68;96.39;99718.91;5061197;28;20052;-65
2022/11/23 02:58:55;;;;;;;27.08;10.50;;;;;;;3.83;96.11;99719.16;5063487;27;20053;-65
2022/11/23 03:01:22;;;;;;;17.45;9.82;;;;;;;3.67;95.62;99731.03;5039801;27;20259;-64
2022/11/23 03:03:48;;;;;;;24.80;10.63;;;;;;;3.34;98.23;99720.22;5050745;27;20047;-64
2022/11/23 03:06:14;;;;;;;21.10;9.82;;;;;;;3.81;95.87;99727.88;5048890;28;20051;-65
2022/11/23 03:08:41;;;;;;;24.55;9.18;;;;;;;4.22;94.04;99723.59;5040400;27;20419;-66
2022/11/23 03:11:07;;;;;;;23.05;9.35;;;;;;;4.69;90.26;99721.59;5049337;28;20044;-65
2022/11/23 03:13:34;;;;;;;18.63;9.38;;;;;;;4.76;89.62;99726.44;5050462;27;20040;-65
2022/11/23 03:16:01;;;;;;;17.95;9.00;;;;;;;4.83;87.19;99733.03;5039743;27;20044;-65
2022/11/23 03:18:28;;;;;;;21.17;8.80;;;;;;;5.02;87.25;99738.25;5058608;28;20044;-65
2022/11/23 03:20:54;;;;;;;16.58;8.75;;;;;;;5.17;86.52;99747.13;5060482;28;20053;-66
2022/11/23 03:23:21;;;;;;;17.33;7.90;;;;;;;5.22;85.42;99740.78;5039362;27;20040;-65
2022/11/23 03:25:55;;;;;;;20.70;9.52;;;;;;;5.14;85.90;99742.03;5058204;28;20503;-65
2022/11/23 03:28:21;;;;;;;21.40;9.10;;;;;;;4.89;85.72;99735.34;5061392;28;20047;-65
2022/11/23 03:30:48;;;;;;;31.05;9.30;;;;;;;4.74;86.51;99740.38;5039403;27;20052;-65
2022/11/23 03:33:16;;;;;;;18.33;8.73;;;;;;;4.73;87.03;99733.53;5050140;27;20515;-66
2022/11/23 03:35:42;;;;;;;19.67;8.90;;;;;;;4.28;88.36;99737.19;5049891;27;20048;-66
2022/11/23 03:38:09;;;;;;;17.83;8.52;;;;;;;4.47;88.45;99734.66;5039296;27;20048;-67
2022/11/23 03:40:35;;;;;;;22.75;8.82;;;;;;;4.67;87.36;99723.38;5063589;28;20400;-67
2022/11/23 03:43:02;;;;;;;17.40;9.40;;;;;;;4.29;88.25;99738.00;5049279;28;20055;-67
2022/11/23 03:45:28;;;;;;;22.20;8.82;;;;;;;3.94;90.20;99739.47;5039166;28;20101;-67
2022/11/23 03:47:55;;;;;;;20.50;9.25;;;;;;;3.55;94.98;99746.25;5064713;28;20047;-66
2022/11/23 03:50:23;;;;;;;16.33;8.82;;;;;;;3.93;90.78;99741.22;5085337;27;20694;-66
2022/11/23 03:52:50;;;;;;;21.10;9.38;;;;;;;3.73;92.87;99741.16;5039647;27;20477;-66
2022/11/23 03:55:16;;;;;;;22.13;9.77;;;;;;;3.39;94.15;99740.78;5056249;27;20055;-66
2022/11/23 03:57:43;;;;;;;28.33;10.18;;;;;;;3.61;92.71;99741.66;5057064;27;20409;-67
2022/11/23 04:00:10;;;;;;;19.45;9.55;;;;;;;3.33;94.20;99735.81;5039675;27;20067;-66
2022/11/23 04:02:37;;;;;;;26.83;10.77;;;;;;;3.31;94.76;99732.47;5049300;27;20672;-66
2022/11/23 04:05:03;;;;;;;26.65;11.25;;;;;;;3.04;96.99;99734.34;5048472;28;20045;-66
2022/11/23 04:07:31;;;;;;;21.10;10.20;;;;;;;3.36;96.24;99728.78;5039841;27;20049;-66
2022/11/23 04:09:57;;;;;;;18.48;9.77;;;;;;;3.27;94.89;99728.28;5048280;28;20044;-66
2022/11/23 04:12:24;;;;;;;24.33;10.93;;;;;;;3.09;97.09;99723.81;5048246;27;20040;-67
2022/11/23 04:14:51;;;;;;;26.63;10.55;;;;;;;2.72;99.79;99717.41;5071103;27;20044;-67
2022/11/23 04:17:17;;;;;;;23.52;11.35;;;;;;;2.83;100.00;99722.19;5055914;28;20051;-66
2022/11/23 04:19:44;;;;;;;25.52;10.68;;;;;;;3.50;96.71;99728.28;5055048;28;20106;-66
2022/11/23 04:22:11;;;;;;;21.15;10.07;;;;;;;3.30;96.88;99730.75;5038469;28;20052;-66
2022/11/23 04:24:38;;;;;;;22.63;9.82;;;;;;;3.90;94.99;99717.16;5049860;28;20440;-66
2022/11/23 04:27:05;;;;;;;23.75;9.77;;;;;;;3.65;96.28;99721.63;5054170;28;20045;-66
2022/11/23 04:29:31;;;;;;;20.75;10.05;;;;;;;3.75;95.06;99718.63;5028406;28;20523;-67
2022/11/23 04:31:58;;;;;;;20.40;9.98;;;;;;;3.64;95.95;99720.78;5034465;28;20436;-67
2022/11/23 04:34:24;;;;;;;22.23;10.13;;;;;;;3.61;94.99;99720.91;5047389;27;20512;-67
2022/11/23 04:36:50;;;;;;;14.85;7.47;;;;;;;3.69;94.58;99721.47;5045707;27;20052;-67
2022/11/23 04:39:17;;;;;;;19.92;10.20;;;;;;;3.50;96.93;99709.28;5043866;28;20063;-67
2022/11/23 04:41:45;;;;;;;19.88;9.73;;;;;;;3.46;95.96;99713.75;5042725;27;20059;-67
2022/11/23 04:44:11;;;;;;;21.52;10.90;;;;;;;3.42;96.93;99718.19;5040630;28;20048;-67
2022/11/23 04:46:37;;;;;;;21.10;9.63;;;;;;;3.64;95.62;99709.56;5047444;28;20052;-66
2022/11/23 04:49:04;;;;;;;25.60;9.95;;;;;;;3.57;96.22;99713.31;5054870;28;20067;-66
2022/11/23 04:51:30;;;;;;;18.67;8.82;;;;;;;3.36;97.57;99713.22;5047502;27;20540;-66
2022/11/23 04:53:57;;;;;;;23.67;10.88;;;;;;;3.35;97.42;99721.09;5045035;27;20543;-66
2022/11/23 04:56:23;;;;;;;20.70;10.40;;;;;;;3.79;95.76;99720.19;5056291;28;20504;-67
2022/11/23 04:58:51;;;;;;;20.55;9.70;;;;;;;4.10;94.55;99724.13;5062718;27;20055;-67
2022/11/23 05:01:17;;;;;;;16.13;8.38;;;;;;;3.78;94.86;99728.00;5043110;27;20048;-67
2022/11/23 05:03:44;;;;;;;19.35;9.05;;;;;;;4.16;94.41;99709.13;5046497;27;20500;-67
2022/11/23 05:06:10;;;;;;;21.20;9.95;;;;;;;4.02;93.63;99715.81;5047858;27;20052;-66
2022/11/23 05:08:37;;;;;;;20.58;9.98;;;;;;;4.09;92.77;99720.69;5037297;27;20040;-67
2022/11/23 05:11:04;;;;;;;15.93;8.48;;;;;;;3.98;93.62;99716.84;5046585;27;20048;-67
2022/11/23 05:13:30;;;;;;;23.42;9.52;;;;;;;4.11;91.56;99711.06;5048123;28;20048;-67
2022/11/23 05:15:58;;;;;;;17.17;8.35;;;;;;;4.12;92.57;99712.75;5038714;27;20048;-67
2022/11/23 05:18:24;;;;;;;18.77;9.38;;;;;;;4.41;91.37;99706.34;5055235;28;20434;-67
2022/11/23 05:20:51;;;;;;;19.95;9.23;;;;;;;4.20;91.81;99702.91;5062784;28;20492;-67
2022/11/23 05:23:17;;;;;;;18.85;9.20;;;;;;;4.45;91.27;99700.09;5036952;27;20048;-67
2022/11/23 05:25:44;;;;;;;15.13;8.18;;;;;;;4.45;90.79;99709.66;5049554;28;20499;-67
2022/11/23 05:28:15;;;;;;;15.45;8.20;;;;;;;4.55;87.76;99697.94;5053254;28;20044;-67
2022/11/23 05:30:41;;;;;;;20.35;8.13;;;;;;;4.48;86.79;99702.56;5041151;27;20415;-67
2022/11/23 05:33:10;;;;;;;15.05;7.90;;;;;;;4.57;85.73;99702.19;5047694;27;20401;-67
2022/11/23 05:35:36;;;;;;;16.67;7.90;;;;;;;4.54;84.54;99699.72;5046910;28;20051;-67
2022/11/23 05:38:03;;;;;;;17.05;8.05;;;;;;;4.35;83.70;99699.69;5042437;27;20515;-68
2022/11/23 05:40:29;;;;;;;13.23;7.03;;;;;;;4.33;85.12;99700.63;5047459;27;20575;-67
2022/11/23 05:42:55;;;;;;;20.95;8.35;;;;;;;4.20;84.72;99707.25;5051888;27;20488;-67
2022/11/23 05:45:23;;;;;;;16.98;9.00;;;;;;;4.28;84.51;99713.81;5041905;27;20045;-68
2022/11/23 05:47:50;;;;;;;21.15;8.10;;;;;;;4.39;83.69;99729.78;5057512;27;20251;-67
2022/11/23 05:50:18;;;;;;;15.38;7.55;;;;;;;4.44;82.96;99719.19;5055937;28;20048;-67
2022/11/23 05:52:45;;;;;;;12.05;7.82;;;;;;;4.16;83.23;99723.84;5045430;28;20793;-67
2022/11/23 05:55:11;;;;;;;16.42;8.55;;;;;;;3.91;85.51;99734.41;5049516;28;20048;-67
2022/11/23 05:57:38;;;;;;;15.18;8.30;;;;;;;3.99;85.39;99726.31;5051595;28;20044;-67
2022/11/23 06:00:05;;;;;;;17.65;8.07;;;;;;;4.14;84.36;99731.69;5041234;28;20047;-67
2022/11/23 06:02:32;;;;;;;18.95;8.18;;;;;;;4.05;83.44;99731.25;5049693;28;20048;-67
2022/11/23 06:04:58;;;;;;;16.83;7.30;;;;;;;4.14;81.47;99730.88;5050917;28;20052;-67
2022/11/23 06:07:26;;;;;;;17.13;7.18;;;;;;;4.18;81.11;99732.41;5041204;28;20460;-67
2022/11/23 06:09:52;;;;;;;11.80;7.05;;;;;;;4.00;80.48;99733.16;5049237;28;20673;-67
2022/11/23 06:12:19;;;;;;;20.02;7.47;;;;;;;3.91;79.58;99734.41;5050778;28;20379;-67
2022/11/23 06:14:45;;;;;;;16.08;7.00;;;;;;;3.97;78.93;99730.69;5051159;28;20052;-67
2022/11/23 06:17:12;;;;;;;13.63;6.93;;;;;;;3.89;79.43;99731.00;5055156;28;20052;-67
2022/11/23 06:19:38;;;;;;;14.23;7.00;;;;;;;3.32;80.62;99726.38;5050234;28;20072;-67
2022/11/23 06:22:04;;;;;;;15.07;7.47;;;;;;;3.35;81.56;99732.28;5040110;28;20430;-67
2022/11/23 06:24:32;;;;;;;11.35;6.60;;;;;;;3.43;81.32;99735.44;5048956;28;20048;-67
2022/11/23 06:26:59;;;;;;;11.02;7.00;;;;;;;3.18;81.72;99732.06;5050464;28;20048;-66
2022/11/23 06:29:25;;;;;;;15.52;7.00;;;;;;;3.21;81.49;99719.03;5040772;28;20048;-66
2022/11/23 06:31:53;;;;;;;17.02;7.60;;;;;;;3.10;82.72;99733.28;5049583;28;20052;-67
2022/11/23 06:34:19;;;;;;;18.55;7.78;;;;;;;2.93;83.50;99739.06;5050772;28;20063;-66
2022/11/23 06:36:46;;;;;;;20.58;8.20;;;;;;;2.80;84.47;99738.69;5040304;28;20045;-66
2022/11/23 06:39:12;;;;;;;16.80;7.85;;;;;;;2.76;84.26;99744.88;5048877;28;20044;-66
2022/11/23 06:41:40;;;;;;;14.68;7.88;;;;;;;2.92;84.44;99743.38;5050119;28;20152;-66
2022/11/23 06:44:07;;;;;;;15.13;8.10;;;;;;;3.05;83.67;99755.91;5040638;28;20049;-66
2022/11/23 06:46:33;;;;;;;15.77;7.18;;;;;;;3.16;83.11;99757.19;5048653;28;20564;-66
2022/11/23 06:48:59;;;;;;;18.38;8.30;;;;;;;3.23;83.80;99750.03;5049814;28;20512;-66
2022/11/23 06:51:26;;;;;;;21.45;10.27;;;;;;;2.90;86.12;99755.56;5040757;28;20412;-66
2022/11/23 06:53:52;;;;;;;29.08;13.95;;;;;;;2.57;89.15;99759.34;5049699;28;20041;-66
2022/11/23 06:56:19;;;;;;;36.08;15.45;;;;;;;2.61;92.45;99768.69;5049522;28;20049;-66
2022/11/23 06:58:47;;;;;;;36.22;16.27;;;;;;;3.27;91.73;99768.00;5040174;28;20044;-67
2022/11/23 07:01:14;;;;;;;35.42;18.08;;;;;;;3.42;89.92;99764.00;5048065;28;20053;-67
2022/11/23 07:03:40;;;;;;;31.40;14.43;;;;;;;3.49;91.19;99772.38;5050408;28;20052;-66
2022/11/23 07:06:08;;;;;;;35.55;15.85;;;;;;;3.15;95.53;99773.63;5039667;28;20106;-66
2022/11/23 07:08:38;;;;;;;28.52;13.20;;;;;;;3.51;95.68;99779.19;5048841;28;20040;-65
2022/11/23 07:11:08;;;;;;;37.83;13.68;;;;;;;3.64;96.80;99777.81;5049469;28;20188;-65
2022/11/23 07:13:34;;;;;;;34.80;13.88;;;;;;;4.13;92.91;99787.09;5039443;28;20518;-65
2022/11/23 07:16:02;;;;;;;28.58;12.90;;;;;;;4.36;91.35;99771.41;5049422;28;20051;-65
2022/11/23 07:18:28;;;;;;;31.45;12.13;;;;;;;4.51;90.97;99777.72;5049179;28;20043;-65
2022/11/23 07:20:57;;;;;;;26.10;10.88;;;;;;;4.63;91.12;99776.34;5071736;28;20045;-65
2022/11/23 07:23:23;;;;;;;23.88;10.90;;;;;;;4.50;92.78;99780.38;5048164;28;20048;-65
2022/11/23 07:25:50;;;;;;;21.75;10.02;;;;;;;4.20;95.90;99785.94;5048940;28;20044;-65
2022/11/23 07:28:17;;;;;;;21.25;9.75;;;;;;;4.62;93.84;99774.69;5046292;28;20052;-65
2022/11/23 07:30:43;;;;;;;23.77;9.95;;;;;;;5.16;91.67;99777.47;5048226;28;20048;-65
2022/11/23 07:33:12;;;;;;;23.00;9.60;;;;;;;5.28;91.63;99783.88;5048836;28;20401;-65
2022/11/23 07:35:40;;;;;;;19.02;9.30;;;;;;;5.44;90.52;99779.63;5039549;28;20045;-65
2022/11/23 07:38:08;;;;;;;24.00;10.35;;;;;;;5.76;89.47;99781.59;5048495;28;20040;-65
2022/11/23 07:40:35;;;;;;;23.05;9.98;;;;;;;6.16;87.82;99777.13;5049198;28;20158;-66
2022/11/23 07:43:03;;;;;;;19.08;9.38;;;;;;;6.33;87.35;99771.91;5047218;28;20491;-65
2022/11/23 07:45:30;;;;;;;21.70;10.20;;;;;;;6.45;85.73;99783.47;5049067;28;20055;-65
2022/11/23 07:47:58;;;;;;;17.58;9.20;;;;;;;6.15;87.25;99780.63;5045841;28;20052;-65
2022/11/23 07:50:26;;;;;;;20.67;8.68;;;;;;;6.19;87.44;99772.59;5048794;28;20661;-66
2022/11/23 07:52:52;;;;;;;18.35;8.75;;;;;;;6.14;87.42;99782.38;5047585;28;20044;-65
2022/11/23 07:55:19;;;;;;;17.38;7.45;;;;;;;5.98;88.87;99778.84;5056746;28;20111;-65
2022/11/23 07:57:45;;;;;;;20.13;8.63;;;;;;;5.55;90.86;99779.13;5049786;28;20049;-66
2022/11/23 08:00:12;;;;;;;13.93;7.35;;;;;;;5.50;91.40;99781.13;5047805;28;20045;-65
2022/11/23 08:02:39;;;;;;;15.95;7.90;;;;;;;4.94;95.77;99776.72;5046615;28;20393;-66
2022/11/23 08:05:06;;;;;;;15.75;7.15;;;;;;;5.14;94.77;99778.41;5047166;28;20576;-66
2022/11/23 08:07:34;;;;;;;16.73;7.82;;;;;;;5.58;93.78;99774.63;5047070;28;20076;-65
2022/11/23 08:10:01;;;;;;;19.45;8.20;;;;;;;6.17;90.13;99784.00;5041560;28;20044;-65
2022/11/23 08:12:27;;;;;;;17.33;7.75;;;;;;;6.60;87.74;99773.16;5048914;28;20052;-66
2022/11/23 08:14:54;;;;;;;17.73;7.97;;;;;;;6.18;89.52;99785.69;5047281;28;20045;-65
2022/11/23 08:17:20;;;;;;;18.13;7.82;;;;;;;6.39;88.97;99791.59;5048073;28;20131;-65
2022/11/23 08:19:47;;;;;;;17.38;8.30;;;;;;;6.68;87.68;99784.03;5042280;28;20056;-65
2022/11/23 08:22:13;;;;;;;24.15;8.07;;;;;;;7.15;84.98;99794.59;5046698;28;20044;-65
2022/11/23 08:24:41;;;;;;;13.98;7.32;;;;;;;7.03;85.20;99791.75;5048062;28;20045;-65
2022/11/23 08:27:07;;;;;;;17.25;8.00;;;;;;;6.80;86.50;99800.75;5040847;28;20051;-65
2022/11/23 08:29:34;;;;;;;14.45;7.13;;;;;;;6.82;86.18;99798.94;5046190;28;20068;-66
2022/11/23 08:32:00;;;;;;;16.48;7.30;;;;;;;6.70;87.21;99804.75;5048460;28;20044;-66
2022/11/23 08:34:27;;;;;;;15.82;7.25;;;;;;;6.62;88.57;99797.34;5038259;28;20055;-66
2022/11/23 08:36:53;;;;;;;14.38;7.03;;;;;;;6.72;87.44;99795.97;5046923;28;20489;-65
2022/11/23 08:39:20;;;;;;;11.88;6.45;;;;;;;7.04;86.97;99794.31;5048435;28;20493;-65
2022/11/23 08:41:47;;;;;;;19.10;8.07;;;;;;;6.72;87.35;99803.78;5038339;28;20053;-65
2022/11/23 08:44:14;;;;;;;15.68;7.60;;;;;;;6.80;87.57;99805.97;5047381;28;20049;-65
2022/11/23 08:46:40;;;;;;;17.10;6.72;;;;;;;7.26;86.12;99805.28;5047672;28;20214;-65
2022/11/23 08:49:07;;;;;;;22.75;7.47;;;;;;;7.31;85.16;99810.28;5037598;28;20041;-65
2022/11/23 08:51:35;;;;;;;14.13;6.28;;;;;;;6.41;89.03;99806.22;5046636;28;20492;-65
2022/11/23 08:54:02;;;;;;;12.43;6.60;;;;;;;7.06;88.04;99805.47;5048013;28;20423;-65
2022/11/23 08:56:28;;;;;;;13.00;6.78;;;;;;;7.14;87.02;99805.09;5036861;28;20424;-66
2022/11/23 08:58:56;;;;;;;15.25;6.22;;;;;;;7.21;86.60;99807.28;5045987;28;20059;-66
2022/11/23 09:01:22;;;;;;;16.55;6.88;;;;;;;7.56;84.72;99809.78;5035904;28;20052;-66
2022/11/23 09:03:49;;;;;;;19.33;6.75;;;;;;;7.63;84.22;99808.53;5039167;28;20041;-66
2022/11/23 09:06:15;;;;;;;13.63;6.72;;;;;;;7.09;86.81;99796.69;5059703;28;20083;-66
2022/11/23 09:08:42;;;;;;;14.07;6.57;;;;;;;7.51;85.87;99804.81;5047576;28;20488;-66
2022/11/23 09:11:11;;;;;;;15.10;5.75;;;;;;;7.03;86.83;99807.41;5030909;28;20402;-66
2022/11/23 09:13:39;;;;;;;18.38;6.35;;;;;;;7.47;87.08;99802.44;5037517;28;20044;-66
2022/11/23 09:16:07;;;;;;;14.77;6.45;;;;;;;7.83;84.44;99805.69;5047174;28;20052;-66
2022/11/23 09:18:35;;;;;;;9.25;5.85;;;;;;;7.62;84.68;99809.44;5035987;28;20049;-66
2022/11/23 09:21:03;;;;;;;15.60;5.80;;;;;;;7.28;85.97;99813.00;5046731;28;20041;-66
2022/11/23 09:23:29;;;;;;;13.15;6.75;;;;;;;7.32;87.40;99804.09;5047966;28;20086;-66
2022/11/23 09:25:58;;;;;;;15.57;6.90;;;;;;;7.48;85.61;99810.19;5043199;28;20469;-66
2022/11/23 09:28:26;;;;;;;18.45;6.88;;;;;;;7.67;86.40;99810.91;5057843;28;20041;-66
2022/11/23 09:30:53;;;;;;;13.73;5.63;;;;;;;7.80;84.70;99805.84;5039571;28;20059;-67
2022/11/23 09:33:21;;;;;;;12.55;5.95;;;;;;;7.60;85.98;99814.78;5046624;28;20044;-66
2022/11/23 09:35:47;;;;;;;12.65;6.13;;;;;;;7.80;84.90;99811.06;5049397;28;20044;-66
2022/11/23 09:38:14;;;;;;;12.13;6.30;;;;;;;7.25;87.85;99810.56;5046607;28;20060;-66
2022/11/23 09:40:41;;;;;;;14.90;6.25;;;;;;;7.22;88.04;99815.94;5043362;28;20092;-67
2022/11/23 09:43:27;;;;;;;16.42;5.88;;;;;;;7.70;85.51;99810.72;5039873;28;20045;-66
2022/11/23 09:45:57;;;;;;;15.77;6.20;;;;;;;8.24;83.08;99805.97;5023845;28;20060;-66
2022/11/23 09:48:39;;;;;;;17.33;6.38;;;;;;;8.86;81.07;99807.59;5030528;28;20083;-66
2022/11/23 09:51:14;;;;;;;13.23;5.23;;;;;;;8.92;80.14;99804.59;5044630;27;20044;-66
2022/11/23 09:53:46;;;;;;;13.40;6.55;;;;;;;8.74;79.96;99803.94;5046621;28;20044;-66
2022/11/23 09:56:18;;;;;;;12.77;6.05;;;;;;;8.00;82.40;99812.56;5045774;28;20661;-66
2022/11/23 09:58:44;;;;;;;16.23;6.10;;;;;;;7.93;84.72;99801.63;5058704;28;20051;-66
2022/11/23 10:01:14;;;;;;;15.02;5.68;;;;;;;8.23;82.47;99806.91;5061375;28;20047;-66
2022/11/23 10:03:44;;;;;;;11.90;5.70;;;;;;;8.05;83.71;99807.94;5037389;28;20044;-66
2022/11/23 10:06:18;;;;;;;12.55;6.00;;;;;;;8.17;83.57;99805.47;5047121;28;20045;-66
2022/11/23 10:08:55;;;;;;;12.10;5.30;;;;;;;7.53;85.34;99802.13;5036260;28;20049;-66
2022/11/23 10:11:38;;;;;;;12.32;5.78;;;;;;;7.98;84.67;99802.19;5044692;28;20048;-66
2022/11/23 10:14:22;;;;;;;11.68;5.38;;;;;;;7.94;85.48;99802.47;5037222;28;20052;-66
2022/11/23 10:16:58;;;;;;;13.63;5.50;;;;;;;8.27;83.20;99801.44;5045450;28;20044;-66
2022/11/23 10:19:38;;;;;;;13.68;5.95;;;;;;;8.76;81.10;99796.81;5036234;28;20458;-66
2022/11/23 10:22:11;;;;;;;16.58;5.57;;;;;;;8.18;83.31;99795.88;5046813;28;20052;-66
2022/11/23 10:24:42;;;;;;;13.65;5.53;;;;;;;8.54;83.21;99792.94;5038457;28;20048;-66
2022/11/23 10:27:13;;;;;;;12.30;5.38;;;;;;;8.51;82.05;99798.34;5057229;28;20048;-66
2022/11/23 10:29:41;;;;;;;11.35;5.88;;;;;;;8.12;83.77;99807.50;5054295;28;20056;-65
2022/11/23 10:32:26;;;;;;;15.38;5.55;;;;;;;8.08;85.33;99800.78;5059342;28;20118;-66
2022/11/23 10:35:02;;;;;;;13.15;5.63;;;;;;;7.86;85.35;99795.06;5033174;28;20052;-66
2022/11/23 10:37:28;;;;;;;14.73;5.75;;;;;;;8.02;86.44;99795.88;5028334;28;20047;-67
2022/11/23 10:39:55;;;;;;;11.75;5.28;;;;;;;8.53;84.80;99789.50;5046942;28;20044;-66
2022/11/23 10:42:29;;;;;;;12.20;5.57;;;;;;;8.65;83.50;99786.16;5040197;28;20096;-66
2022/11/23 10:44:58;;;;;;;11.75;5.25;;;;;;;8.99;81.71;99779.75;5049323;28;20055;-66
2022/11/23 10:47:37;;;;;;;12.88;5.70;;;;;;;9.40;79.70;99787.69;5049697;28;20480;-66
2022/11/23 10:50:21;;;;;;;11.35;5.35;;;;;;;8.75;81.85;99789.94;5048780;28;20557;-66
2022/11/23 10:52:51;;;;;;;11.73;5.00;;;;;;;8.80;82.44;99800.94;5045569;28;20403;-66
2022/11/23 10:55:22;;;;;;;10.40;5.35;;;;;;;9.60;79.77;99792.56;5056980;28;20479;-66
2022/11/23 10:57:48;;;;;;;9.85;4.75;;;;;;;9.03;80.59;99796.09;5076201;27;20051;-66
2022/11/23 11:00:18;;;;;;;10.73;4.45;;;;;;;9.45;80.10;99793.50;5079996;27;20055;-66
2022/11/23 11:02:47;;;;;;;10.07;4.95;;;;;;;9.31;79.83;99801.38;5069694;28;20051;-66
2022/11/23 11:05:27;;;;;;;13.25;4.40;;;;;;;9.55;78.93;99789.38;5071398;28;20491;-66
2022/11/23 11:07:55;;;;;;;14.57;4.80;;;;;;;9.39;79.53;99787.78;5067069;28;20591;-66
2022/11/23 11:10:38;;;;;;;16.02;5.68;;;;;;;9.81;79.01;99786.88;5068427;28;20048;-66
2022/11/23 11:13:21;;;;;;;17.95;5.95;;;;;;;9.84;78.66;99798.00;5056547;28;20037;-66
2022/11/23 11:15:52;;;;;;;12.15;5.20;;;;;;;10.09;78.47;99799.88;5046132;28;20064;-66
2022/11/23 11:18:19;;;;;;;12.18;4.70;;;;;;;10.11;78.29;99788.38;5045240;28;20493;-67
2022/11/23 11:20:47;;;;;;;9.05;4.30;;;;;;;9.49;79.37;99787.16;5048690;28;20044;-66
2022/11/23 11:23:19;;;;;;;10.82;4.60;;;;;;;9.95;80.88;99781.59;5049117;28;20064;-66
2022/11/23 11:25:47;;;;;;;11.40;5.45;;;;;;;10.26;77.49;99773.47;5049353;28;20048;-66
2022/11/23 11:28:24;;;;;;;12.75;4.65;;;;;;;10.40;76.03;99785.66;5047871;28;20475;-66
2022/11/23 11:31:03;;;;;;;12.40;4.53;;;;;;;10.98;75.90;99777.34;5039964;28;20044;-66
2022/11/23 11:33:36;;;;;;;12.65;4.10;;;;;;;10.67;75.59;99775.97;5049286;28;20044;-66
2022/11/23 11:36:08;;;;;;;12.45;4.53;;;;;;;10.15;77.30;99778.59;5039769;28;20051;-66